Time;durP1;ratioP1;P1;durP2;ratioP2;P2;SDS_P1;SDS_P2;PMS_P1;PMS_P2;Temp;Humidity;BMP_temperature;BMP_pressure;BME280_temperature;BME280_humidity;BME280_pressure;Samples;Min_cycle;Max_cycle;Signal;HPM_P1;HPM_P2
2023/07/05 00:01:00;;;;;;;21.00;18.80;;;17.60;99.90;;;;;;4924192;29;20449;-84
2023/07/05 00:03:28;;;;;;;22.53;20.10;;;20.10;99.90;;;;;;4932402;29;20454;-83
2023/07/05 00:05:55;;;;;;;20.77;18.53;;;19.20;99.90;;;;;;4919346;29;20464;-83
2023/07/05 00:08:23;;;;;;;21.80;18.90;;;18.80;99.90;;;;;;4927429;29;20455;-82
2023/07/05 00:11:00;;;;;;;24.13;19.40;;;17.40;99.90;;;;;;4920575;29;20498;-80
2023/07/05 00:13:29;;;;;;;21.73;18.90;;;17.60;99.90;;;;;;4931360;29;20419;-84
2023/07/05 00:15:56;;;;;;;24.10;21.57;;;17.80;99.90;;;;;;4930896;29;20475;-83
2023/07/05 00:18:24;;;;;;;22.63;20.13;;;19.50;99.90;;;;;;4941910;29;20450;-84
2023/07/05 00:20:52;;;;;;;22.50;19.53;;;19.20;99.90;;;;;;4926754;29;20535;-83
2023/07/05 00:23:21;;;;;;;23.30;19.47;;;18.80;99.90;;;;;;4928494;29;20517;-81
2023/07/05 00:25:50;;;;;;;21.30;19.00;;;18.70;99.90;;;;;;4941705;29;20502;-82
2023/07/05 00:28:17;;;;;;;20.53;18.33;;;17.60;99.90;;;;;;4922068;29;20459;-80
2023/07/05 00:30:45;;;;;;;22.63;20.27;;;17.60;99.90;;;;;;4923316;29;20447;-81
2023/07/05 00:33:14;;;;;;;22.50;20.10;;;18.50;99.90;;;;;;4920199;29;20424;-83
2023/07/05 00:35:49;;;;;;;21.00;18.70;;;17.60;99.90;;;;;;4939893;29;20427;-81
2023/07/05 00:38:20;;;;;;;21.30;19.00;;;17.30;99.90;;;;;;4928459;29;20415;-83
2023/07/05 00:40:48;;;;;;;20.63;18.23;;;18.00;99.90;;;;;;4928702;29;20628;-81
2023/07/05 00:43:18;;;;;;;22.27;19.77;;;17.90;99.90;;;;;;4928725;29;20523;-82
2023/07/05 00:45:54;;;;;;;20.40;17.40;;;17.30;99.90;;;;;;4939505;29;20482;-81
2023/07/05 00:48:25;;;;;;;25.20;19.37;;;17.30;99.90;;;;;;4934110;29;20537;-82
2023/07/05 00:50:58;;;;;;;25.77;21.43;;;17.70;99.90;;;;;;4932803;29;20453;-83
2023/07/05 00:53:28;;;;;;;25.40;20.67;;;17.40;99.90;;;;;;4933905;29;20438;-82
2023/07/05 00:56:29;;;;;;;23.60;20.27;;;17.60;99.90;;;;;;4929636;29;20704;-82
2023/07/05 00:58:58;;;;;;;24.10;21.00;;;17.30;99.90;;;;;;4926613;29;20438;-82
2023/07/05 01:01:26;;;;;;;22.90;18.70;;;17.30;99.90;;;;;;4925515;29;20451;-82
2023/07/05 01:03:59;;;;;;;26.60;19.90;;;17.50;99.90;;;;;;4937981;29;20462;-83
2023/07/05 01:06:27;;;;;;;22.93;20.53;;;17.90;99.90;;;;;;4935119;29;20485;-82
2023/07/05 01:08:54;;;;;;;22.30;19.37;;;17.50;99.90;;;;;;4926721;29;20459;-83
2023/07/05 01:11:30;;;;;;;21.67;18.23;;;17.40;99.90;;;;;;4928057;29;20447;-82
2023/07/05 01:14:56;;;;;;;22.30;19.13;;;17.70;99.90;;;;;;5076982;28;20778;-83
2023/07/05 01:17:40;;;;;;;22.60;20.27;;;17.30;99.90;;;;;;5063007;28;20564;-82
2023/07/05 01:20:28;;;;;;;26.60;21.07;;;17.00;99.90;;;;;;5066346;28;20428;-83
2023/07/05 01:23:01;;;;;;;24.27;21.70;;;16.80;99.90;;;;;;5085076;28;20408;-81
2023/07/05 01:25:47;;;;;;;23.50;20.97;;;16.90;99.90;;;;;;5081428;28;20447;-83
2023/07/05 01:28:32;;;;;;;27.50;21.93;;;17.00;99.90;;;;;;5084654;28;20507;-82
2023/07/05 01:31:22;;;;;;;27.60;20.43;;;16.90;99.90;;;;;;5061317;28;20471;-83
2023/07/05 01:34:03;;;;;;;23.43;20.77;;;17.80;99.90;;;;;;5054496;28;20460;-83
2023/07/05 01:36:30;;;;;;;25.63;20.67;;;17.50;99.90;;;;;;5057379;28;20492;-83
2023/07/05 01:38:58;;;;;;;23.43;19.43;;;16.80;99.90;;;;;;5060961;28;20653;-82
2023/07/05 01:41:25;;;;;;;23.60;21.10;;;16.80;99.90;;;;;;5059849;28;20464;-85
2023/07/05 01:43:53;;;;;;;23.30;19.60;;;16.70;99.90;;;;;;5069109;28;20472;-84
2023/07/05 01:46:31;;;;;;;24.80;20.37;;;18.10;99.90;;;;;;5061986;28;20466;-82
2023/07/05 01:49:04;;;;;;;22.63;18.40;;;16.60;99.90;;;;;;5070509;28;20999;-82
2023/07/05 01:51:54;;;;;;;22.17;19.17;;;16.70;99.90;;;;;;5064607;28;20499;-83
2023/07/05 01:54:39;;;;;;;22.77;20.37;;;16.70;99.90;;;;;;5050286;28;20448;-83
2023/07/05 01:57:24;;;;;;;26.03;20.30;;;16.90;99.90;;;;;;5068020;28;20429;-82
2023/07/05 02:00:05;;;;;;;22.00;19.70;;;17.30;99.90;;;;;;5063003;28;20451;-83
2023/07/05 02:02:42;;;;;;;27.47;20.07;;;16.50;99.90;;;;;;5078462;28;20454;-82
2023/07/05 02:05:10;;;;;;;25.03;19.90;;;16.40;99.90;;;;;;5072297;28;20432;-82
2023/07/05 02:07:37;;;;;;;22.43;19.10;;;17.00;99.90;;;;;;5071469;28;20421;-82
2023/07/05 02:10:04;;;;;;;22.80;19.37;;;14.90;99.90;;;;;;5076800;28;21010;-82
2023/07/05 02:12:34;;;;;;;26.43;21.80;;;16.30;99.90;;;;;;5072901;28;20484;-84
2023/07/05 02:15:02;;;;;;;25.30;20.80;;;;;;;;;;5070613;28;20430;-82
2023/07/05 02:17:29;;;;;;;23.73;21.13;;;16.40;99.90;;;;;;5071363;28;20817;-82
2023/07/05 02:19:56;;;;;;;26.40;22.77;;;16.10;99.90;;;;;;5070824;28;20444;-83
2023/07/05 02:22:23;;;;;;;24.73;20.33;;;16.20;99.90;;;;;;5067452;28;20507;-82
2023/07/05 02:24:51;;;;;;;23.57;21.10;;;15.30;99.90;;;;;;5056210;28;20677;-82
2023/07/05 02:27:19;;;;;;;21.90;19.60;;;16.20;99.90;;;;;;5051906;28;20448;-82
2023/07/05 02:29:46;;;;;;;23.80;21.03;;;17.10;99.90;;;;;;5034829;28;20530;-83
2023/07/05 02:32:14;;;;;;;21.53;19.30;;;16.30;99.90;;;;;;5042340;28;20442;-81
2023/07/05 02:34:47;;;;;;;23.23;20.00;;;16.20;99.90;;;;;;5040206;28;20439;-82
2023/07/05 02:37:15;;;;;;;24.97;20.90;;;16.10;99.90;;;;;;5053308;28;20477;-82
2023/07/05 02:39:42;;;;;;;28.53;20.97;;;16.20;99.90;;;;;;5045226;28;20770;-82
2023/07/05 02:42:11;;;;;;;32.10;21.23;;;16.30;99.90;;;;;;5042140;28;20949;-82
2023/07/05 02:44:38;;;;;;;24.10;21.07;;;16.30;99.90;;;;;;5043681;28;20442;-81
2023/07/05 02:47:07;;;;;;;23.17;20.77;;;16.20;99.90;;;;;;5043330;28;20470;-80
2023/07/05 02:49:34;;;;;;;22.10;19.80;;;16.10;99.90;;;;;;5049541;28;20433;-81
2023/07/05 02:52:01;;;;;;;31.27;21.30;;;16.50;99.90;;;;;;5053705;28;20450;-83
2023/07/05 02:54:28;;;;;;;22.53;20.23;;;16.10;99.90;;;;;;5056288;28;20458;-82
2023/07/05 02:56:55;;;;;;;24.13;19.73;;;16.20;99.90;;;;;;5052745;28;20497;-83
2023/07/05 02:59:22;;;;;;;25.93;20.20;;;16.10;99.90;;;;;;5043503;28;20438;-82
2023/07/05 03:01:49;;;;;;;23.13;19.73;;;16.80;99.90;;;;;;5043931;28;20404;-81
2023/07/05 03:04:17;;;;;;;26.50;19.80;;;16.20;99.90;;;;;;5046881;28;20441;-83
2023/07/05 03:06:44;;;;;;;23.63;20.60;;;16.10;99.90;;;;;;5047486;28;20427;-82
2023/07/05 03:09:12;;;;;;;22.13;19.80;;;16.10;99.90;;;;;;5058698;28;20467;-82
2023/07/05 03:11:41;;;;;;;27.60;21.17;;;16.20;99.90;;;;;;5044966;28;20510;-82
2023/07/05 03:14:08;;;;;;;24.57;20.50;;;16.40;99.90;;;;;;5041708;28;21013;-83
2023/07/05 03:16:37;;;;;;;22.17;19.87;;;16.50;99.90;;;;;;5039946;28;20438;-82
2023/07/05 03:19:07;;;;;;;21.63;19.33;;;16.80;99.90;;;;;;5043026;28;20466;-81
2023/07/05 03:21:34;;;;;;;24.13;20.90;;;17.10;99.90;;;;;;5045512;28;20552;-82
2023/07/05 03:24:01;;;;;;;23.27;19.93;;;17.30;99.90;;;;;;5050082;28;21101;-81
2023/07/05 03:26:28;;;;;;;22.73;20.23;;;16.70;99.90;;;;;;5052142;28;20475;-81
2023/07/05 03:28:55;;;;;;;23.10;20.60;;;16.70;99.90;;;;;;5054631;28;20451;-82
2023/07/05 03:31:22;;;;;;;22.20;18.57;;;17.20;99.90;;;;;;5045554;28;20508;-81
2023/07/05 03:33:53;;;;;;;24.17;20.93;;;16.80;99.90;;;;;;5052997;28;20489;-82
2023/07/05 03:36:20;;;;;;;22.87;19.60;;;17.80;99.90;;;;;;5051361;28;20503;-81
2023/07/05 03:38:51;;;;;;;22.67;18.90;;;17.40;99.90;;;;;;5051400;28;20445;-81
2023/07/05 03:41:21;;;;;;;25.00;18.93;;;18.00;99.90;;;;;;5049121;28;20488;-82
2023/07/05 03:43:53;;;;;;;22.23;18.33;;;17.80;99.90;;;;;;5047942;28;20804;-82
2023/07/05 03:46:20;;;;;;;23.13;18.07;;;18.60;99.90;;;;;;5044715;28;20752;-81
2023/07/05 03:48:48;;;;;;;21.40;19.10;;;18.10;99.90;;;;;;5046081;28;20445;-81
2023/07/05 03:51:18;;;;;;;22.00;16.93;;;18.60;99.90;;;;;;5044886;28;20497;-80
2023/07/05 03:53:52;;;;;;;24.80;19.70;;;18.20;99.90;;;;;;5047004;28;20549;-81
2023/07/05 03:56:20;;;;;;;30.97;18.87;;;18.20;99.90;;;;;;5042138;28;20420;-79
2023/07/05 03:58:48;;;;;;;27.83;19.60;;;18.00;99.90;;;;;;5046635;28;20487;-82
2023/07/05 04:01:20;;;;;;;26.33;19.77;;;18.00;99.90;;;;;;5042424;28;20703;-80
2023/07/05 04:03:56;;;;;;;32.00;19.50;;;18.20;99.90;;;;;;5040431;28;20441;-79
2023/07/05 04:06:26;;;;;;;21.50;18.10;;;18.40;99.90;;;;;;5041866;28;20643;-81
2023/07/05 04:08:53;;;;;;;27.77;19.60;;;18.50;99.90;;;;;;5039967;28;20452;-81
2023/07/05 04:11:22;;;;;;;30.93;20.23;;;18.70;99.90;;;;;;5046787;28;20438;-82
2023/07/05 04:13:53;;;;;;;33.43;18.80;;;18.90;99.90;;;;;;5041515;28;20480;-82
2023/07/05 04:16:24;;;;;;;21.00;18.50;;;19.30;99.90;;;;;;5050207;28;20430;-82
2023/07/05 04:18:54;;;;;;;25.40;20.10;;;19.40;99.90;;;;;;5042331;28;20430;-82
2023/07/05 04:21:23;;;;;;;25.03;19.33;;;19.50;99.90;;;;;;5027411;28;20497;-83
2023/07/05 04:23:50;;;;;;;26.97;20.03;;;19.30;99.90;;;;;;5047389;28;20844;-81
2023/07/05 04:26:23;;;;;;;32.10;20.93;;;19.50;99.90;;;;;;5040250;28;20483;-80
2023/07/05 04:28:51;;;;;;;27.70;21.20;;;19.20;99.90;;;;;;5050500;28;20759;-82
2023/07/05 04:31:27;;;;;;;25.47;19.93;;;19.10;99.90;;;;;;5039510;28;20427;-82
2023/07/05 04:33:56;;;;;;;27.23;19.03;;;19.20;99.90;;;;;;5051736;28;20464;-81
2023/07/05 04:36:27;;;;;;;33.73;21.70;;;19.30;99.90;;;;;;5045328;28;20468;-79
2023/07/05 04:39:00;;;;;;;24.17;21.50;;;19.40;99.90;;;;;;5051247;28;20448;-87
2023/07/05 04:41:30;;;;;;;28.90;21.17;;;19.50;99.90;;;;;;5060672;28;20430;-81
2023/07/05 04:43:57;;;;;;;21.97;19.17;;;19.30;99.90;;;;;;5049147;28;20460;-84
2023/07/05 04:46:31;;;;;;;27.23;21.03;;;19.10;99.90;;;;;;5050069;28;20534;-84
2023/07/05 04:48:58;;;;;;;26.97;20.13;;;19.20;99.90;;;;;;5045771;28;20428;-84
2023/07/05 04:51:29;;;;;;;24.40;21.37;;;19.30;99.90;;;;;;5049357;28;20437;-82
2023/07/05 04:53:57;;;;;;;29.93;20.43;;;19.30;99.90;;;;;;5047399;28;20500;-81
2023/07/05 04:56:24;;;;;;;25.73;21.13;;;19.10;99.90;;;;;;5045537;28;20477;-82
2023/07/05 04:58:51;;;;;;;31.37;22.93;;;19.50;99.90;;;;;;5051087;28;20469;-81
2023/07/05 05:01:19;;;;;;;30.80;21.70;;;19.70;99.90;;;;;;5056505;28;20420;-80
2023/07/05 05:03:48;;;;;;;25.80;20.97;;;19.70;99.90;;;;;;5057657;28;20715;-86
2023/07/05 05:06:18;;;;;;;31.73;23.70;;;19.70;99.90;;;;;;5043880;28;20444;-80
2023/07/05 05:08:45;;;;;;;26.00;21.57;;;20.70;99.90;;;;;;5048348;28;20544;-81
2023/07/05 05:11:12;;;;;;;27.97;23.47;;;20.00;99.90;;;;;;5048758;28;20464;-82
2023/07/05 05:13:39;;;;;;;27.00;22.60;;;20.00;99.90;;;;;;5041155;28;20497;-82
2023/07/05 05:16:06;;;;;;;27.37;21.53;;;20.10;99.90;;;;;;5046800;28;20935;-87
2023/07/05 05:18:37;;;;;;;30.93;25.10;;;20.20;99.90;;;;;;5038670;28;20441;-80
2023/07/05 05:21:11;;;;;;;27.20;21.40;;;20.30;99.90;;;;;;5046842;28;20505;-86
2023/07/05 05:23:41;;;;;;;30.03;22.87;;;20.40;99.90;;;;;;5043372;28;20442;-81
2023/07/05 05:26:09;;;;;;;27.00;22.57;;;20.40;99.90;;;;;;5040946;28;20501;-81
2023/07/05 05:28:36;;;;;;;31.03;23.07;;;20.60;99.90;;;;;;5047701;28;20440;-80
2023/07/05 05:31:10;;;;;;;29.53;22.40;;;20.50;99.90;;;;;;5040649;28;20445;-80
2023/07/05 05:33:41;;;;;;;24.63;21.87;;;20.60;99.90;;;;;;5044626;28;20851;-79
2023/07/05 05:36:11;;;;;;;36.07;23.70;;;20.70;99.90;;;;;;5047403;28;20415;-82
2023/07/05 05:38:38;;;;;;;29.37;22.83;;;20.70;99.90;;;;;;5048600;28;20496;-82
2023/07/05 05:41:10;;;;;;;26.10;21.90;;;20.80;99.90;;;;;;5044329;28;20939;-80
2023/07/05 05:43:40;;;;;;;26.23;22.50;;;21.30;99.90;;;;;;5043988;28;20516;-79
2023/07/05 05:46:08;;;;;;;26.43;23.07;;;21.40;99.90;;;;;;5048069;28;20427;-81
2023/07/05 05:48:43;;;;;;;30.57;23.33;;;21.50;99.90;;;;;;5037781;28;20741;-85
2023/07/05 05:51:10;;;;;;;27.83;23.00;;;21.70;99.90;;;;;;5037718;28;20420;-78
2023/07/05 05:53:37;;;;;;;25.73;23.00;;;21.70;99.90;;;;;;5036696;28;20481;-79
2023/07/05 05:56:04;;;;;;;29.70;23.70;;;21.80;99.90;;;;;;5041348;28;20420;-78
2023/07/05 05:58:31;;;;;;;26.13;22.10;;;21.90;99.90;;;;;;5040755;28;20415;-81
2023/07/05 06:01:01;;;;;;;28.03;22.07;;;22.10;99.90;;;;;;5059626;28;20751;-81
2023/07/05 06:03:28;;;;;;;28.20;23.53;;;22.20;99.90;;;;;;5044501;28;20420;-81
2023/07/05 06:05:56;;;;;;;29.80;23.50;;;22.20;99.90;;;;;;5041661;28;20603;-77
2023/07/05 06:08:24;;;;;;;25.20;21.60;;;22.10;99.90;;;;;;5044814;28;20479;-78
2023/07/05 06:11:14;;;;;;;27.03;23.07;;;22.10;99.90;;;;;;5063339;28;20480;-83
2023/07/05 06:13:41;;;;;;;24.70;21.73;;;22.20;99.90;;;;;;5049415;28;20716;-83
2023/07/05 06:16:11;;;;;;;29.37;23.00;;;22.20;99.90;;;;;;5050746;28;20765;-80
2023/07/05 06:18:42;;;;;;;27.60;21.80;;;22.20;99.90;;;;;;5051875;28;20475;-82
2023/07/05 06:21:14;;;;;;;27.23;22.83;;;22.20;99.90;;;;;;5053836;28;20432;-79
2023/07/05 06:23:43;;;;;;;25.30;22.57;;;22.40;99.90;;;;;;5052496;28;20408;-79
2023/07/05 06:26:10;;;;;;;27.60;20.90;;;22.60;99.90;;;;;;5040020;28;20420;-79
2023/07/05 06:28:37;;;;;;;26.40;22.37;;;22.80;99.90;;;;;;5042759;28;20425;-81
2023/07/05 06:31:09;;;;;;;22.33;19.07;;;22.80;99.90;;;;;;5059253;28;20438;-80
2023/07/05 06:33:41;;;;;;;25.10;22.50;;;22.50;99.90;;;;;;5047793;28;20458;-82
2023/07/05 06:36:09;;;;;;;27.03;21.83;;;23.10;99.90;;;;;;5049118;28;20416;-79
2023/07/05 06:38:36;;;;;;;23.03;20.63;;;23.30;99.90;;;;;;5040768;28;20514;-77
2023/07/05 06:41:04;;;;;;;23.03;20.50;;;23.60;99.90;;;;;;5048748;28;20415;-83
2023/07/05 06:43:30;;;;;;;25.93;20.27;;;23.90;99.90;;;;;;5048603;28;20457;-79
2023/07/05 06:45:58;;;;;;;23.30;20.83;;;24.20;99.90;;;;;;5041978;28;20448;-82
2023/07/05 06:48:27;;;;;;;25.30;21.83;;;24.30;99.90;;;;;;5037496;28;20450;-80
2023/07/05 06:50:56;;;;;;;24.83;19.80;;;24.40;99.90;;;;;;5048785;28;20479;-79
2023/07/05 06:53:26;;;;;;;21.23;18.83;;;24.70;99.90;;;;;;5048858;28;20438;-84
2023/07/05 06:56:13;;;;;;;21.23;19.10;;;25.10;99.90;;;;;;5052457;28;20437;-78
2023/07/05 06:58:41;;;;;;;27.97;20.67;;;25.70;99.90;;;;;;5044150;28;20505;-79
2023/07/05 07:01:08;;;;;;;23.67;20.30;;;26.00;99.90;;;;;;5048280;28;20532;-80
2023/07/05 07:03:38;;;;;;;21.97;19.80;;;26.50;99.90;;;;;;5041306;28;20782;-78
2023/07/05 07:06:05;;;;;;;23.37;19.50;;;27.10;99.90;;;;;;5053380;28;20447;-81
2023/07/05 07:08:35;;;;;;;20.17;18.03;;;27.50;99.90;;;;;;5039327;28;20475;-78
2023/07/05 07:11:03;;;;;;;20.93;18.83;;;28.20;99.90;;;;;;5047805;28;20903;-81
2023/07/05 07:13:33;;;;;;;20.87;18.67;;;28.20;99.90;;;;;;5049158;28;20516;-83
2023/07/05 07:16:06;;;;;;;21.33;18.97;;;29.10;99.90;;;;;;5046581;28;20416;-82
2023/07/05 07:18:36;;;;;;;18.50;16.70;;;29.70;99.90;;;;;;5048424;28;20444;-80
2023/07/05 07:21:06;;;;;;;23.33;20.13;;;30.70;99.90;;;;;;5041175;28;20513;-81
2023/07/05 07:23:36;;;;;;;20.47;18.40;;;31.10;99.90;;;;;;5048625;28;20430;-81
2023/07/05 07:26:16;;;;;;;18.03;16.30;;;31.30;99.90;;;;;;5039618;28;20548;-81
2023/07/05 07:28:50;;;;;;;19.83;17.83;;;32.40;98.20;;;;;;5045543;28;20433;-80
2023/07/05 07:31:20;;;;;;;19.37;17.57;;;33.10;95.70;;;;;;5055861;28;20442;-79
2023/07/05 07:33:49;;;;;;;17.67;16.07;;;33.50;96.20;;;;;;5054116;28;20661;-79
2023/07/05 07:36:22;;;;;;;17.97;16.37;;;34.20;88.00;;;;;;5038740;28;20805;-79
2023/07/05 07:38:50;;;;;;;19.33;16.47;;;35.10;88.50;;;;;;5042424;28;20438;-78
2023/07/05 07:41:23;;;;;;;18.43;16.50;;;34.50;81.40;;;;;;5039566;28;20442;-79
2023/07/05 07:43:53;;;;;;;18.57;16.87;;;34.40;84.60;;;;;;5039241;28;20532;-80
2023/07/05 07:46:22;;;;;;;17.67;15.97;;;35.00;86.10;;;;;;5038210;28;20441;-80
2023/07/05 07:48:55;;;;;;;16.67;15.17;;;36.50;85.50;;;;;;5043443;28;20450;-81
2023/07/05 07:51:25;;;;;;;19.33;14.90;;;37.10;78.40;;;;;;5041944;28;20430;-80
2023/07/05 07:54:08;;;;;;;17.20;14.93;;;37.40;75.50;;;;;;5058540;28;20445;-80
2023/07/05 07:56:39;;;;;;;15.27;13.87;;;37.20;72.00;;;;;;5056398;28;20501;-82
2023/07/05 07:59:07;;;;;;;14.93;13.50;;;37.00;77.90;;;;;;5044344;28;20510;-80
2023/07/05 08:01:37;;;;;;;13.50;12.50;;;38.10;77.30;;;;;;5054033;28;20437;-80
2023/07/05 08:04:07;;;;;;;13.27;11.97;;;38.60;81.90;;;;;;5048749;28;20493;-79
2023/07/05 08:06:40;;;;;;;12.70;11.50;;;38.50;73.80;;;;;;5038540;28;20434;-81
2023/07/05 08:09:11;;;;;;;12.90;11.80;;;37.00;64.40;;;;;;5038163;28;20422;-79
2023/07/05 08:11:41;;;;;;;13.50;12.30;;;37.80;75.60;;;;;;5046675;28;20538;-79
2023/07/05 08:14:09;;;;;;;12.80;11.70;;;39.90;74.60;;;;;;5047753;28;20489;-80
2023/07/05 08:16:36;;;;;;;11.70;10.70;;;40.90;64.50;;;;;;5046328;28;21072;-80
2023/07/05 08:19:04;;;;;;;12.77;11.47;;;39.30;66.30;;;;;;5038023;28;20504;-80
2023/07/05 08:21:32;;;;;;;13.80;12.57;;;38.00;71.20;;;;;;5032993;28;20507;-80
2023/07/05 08:23:59;;;;;;;13.17;12.07;;;37.40;70.00;;;;;;5038865;28;20481;-78
2023/07/05 08:26:46;;;;;;;12.40;11.20;;;37.50;68.70;;;;;;5032163;28;20437;-81
2023/07/05 08:29:13;;;;;;;12.93;11.63;;;37.50;71.40;;;;;;5038271;28;20633;-80
2023/07/05 08:31:41;;;;;;;12.20;11.00;;;37.20;71.30;;;;;;5043757;28;20476;-79
2023/07/05 08:34:10;;;;;;;11.30;10.30;;;37.60;70.60;;;;;;5038099;28;20480;-80
2023/07/05 08:36:40;;;;;;;11.33;10.40;;;37.90;65.80;;;;;;5049288;28;20481;-83
2023/07/05 08:39:08;;;;;;;11.77;10.67;;;38.90;64.50;;;;;;5041654;28;20492;-82
2023/07/05 08:41:58;;;;;;;12.00;11.07;;;37.50;63.20;;;;;;5042573;28;20433;-80
2023/07/05 08:44:41;;;;;;;11.47;10.33;;;38.10;67.50;;;;;;5038633;28;20465;-80
2023/07/05 08:47:35;;;;;;;11.63;10.73;;;38.00;65.00;;;;;;5043466;28;20811;-78
2023/07/05 08:50:34;;;;;;;11.43;10.47;;;40.30;63.20;;;;;;5037604;28;20505;-81
2023/07/05 08:53:19;;;;;;;11.60;10.53;;;42.10;60.20;;;;;;5045223;28;20499;-79
2023/07/05 08:56:09;;;;;;;11.10;10.20;;;41.50;54.30;;;;;;5042908;28;21055;-81
2023/07/05 08:58:51;;;;;;;11.40;10.60;;;42.30;57.50;;;;;;5047369;28;20775;-81
2023/07/05 09:01:25;;;;;;;10.70;9.80;;;41.70;58.00;;;;;;5047006;28;20804;-81
2023/07/05 09:03:52;;;;;;;11.20;10.10;;;40.50;55.50;;;;;;5044358;28;20458;-82
2023/07/05 09:06:46;;;;;;;11.67;10.47;;;39.90;57.80;;;;;;5038323;28;20472;-79
2023/07/05 09:09:25;;;;;;;11.00;9.87;;;39.40;56.30;;;;;;5032848;28;20777;-83
2023/07/05 09:12:12;;;;;;;11.10;10.10;;;40.70;49.50;;;;;;5039600;28;20547;-78
2023/07/05 09:15:23;;;;;;;9.47;8.67;;;40.20;48.20;;;;;;5036931;28;20453;-80
2023/07/05 09:18:16;;;;;;;10.80;10.00;;;41.20;46.70;;;;;;5014588;28;20533;-81
2023/07/05 09:21:16;;;;;;;10.90;10.10;;;40.00;51.30;;;;;;5021967;28;20490;-78
2023/07/05 09:23:53;;;;;;;10.17;9.20;;;39.30;55.40;;;;;;5029677;28;20509;-79
2023/07/05 09:26:33;;;;;;;10.30;9.20;;;40.20;52.80;;;;;;5041003;28;20438;-80
2023/07/05 09:29:25;;;;;;;9.00;8.30;;;39.50;49.10;;;;;;5044805;28;20554;-80
2023/07/05 09:31:54;;;;;;;9.20;8.40;;;39.20;52.10;;;;;;5034095;28;20456;-81
2023/07/05 09:34:43;;;;;;;10.37;9.47;;;40.80;52.10;;;;;;5041006;28;20453;-82
2023/07/05 09:37:16;;;;;;;9.50;8.63;;;41.60;51.40;;;;;;5046657;28;20446;-80
2023/07/05 09:40:29;;;;;;;8.90;8.10;;;40.60;51.30;;;;;;5044422;28;20493;-81
2023/07/05 09:43:02;;;;;;;8.97;8.20;;;37.90;55.90;;;;;;5041112;28;20847;-80
2023/07/05 09:45:30;;;;;;;9.20;8.30;;;35.40;58.50;;;;;;5048855;28;20481;-81
2023/07/05 09:47:59;;;;;;;9.70;9.00;;;35.00;60.10;;;;;;5053255;28;20452;-79
2023/07/05 09:50:28;;;;;;;10.13;9.13;;;34.40;62.50;;;;;;5052801;28;20449;-80
2023/07/05 09:52:58;;;;;;;9.33;8.53;;;33.90;66.90;;;;;;5043852;28;20501;-82
2023/07/05 09:55:28;;;;;;;8.80;7.90;;;33.20;66.10;;;;;;5039312;28;20438;-81
2023/07/05 09:57:58;;;;;;;8.40;7.70;;;32.40;68.90;;;;;;5040023;28;20445;-82
2023/07/05 10:00:35;;;;;;;9.03;8.33;;;32.30;70.40;;;;;;5041097;28;20461;-80
2023/07/05 10:03:15;;;;;;;9.03;8.33;;;32.30;74.50;;;;;;5047893;28;20444;-80
2023/07/05 10:05:51;;;;;;;9.27;8.57;;;32.10;72.60;;;;;;5041376;28;20480;-80
2023/07/05 10:08:21;;;;;;;7.90;7.30;;;32.10;77.10;;;;;;5046720;28;20500;-81
2023/07/05 10:10:49;;;;;;;7.97;7.27;;;32.20;75.40;;;;;;5046221;28;20464;-80
2023/07/05 10:13:24;;;;;;;8.90;8.10;;;32.20;71.10;;;;;;5053646;28;20463;-81
2023/07/05 10:16:01;;;;;;;8.50;7.70;;;32.60;74.30;;;;;;5046824;28;20433;-80
2023/07/05 10:18:36;;;;;;;9.80;8.43;;;32.80;72.20;;;;;;5040384;28;20433;-79
2023/07/05 10:21:14;;;;;;;8.43;7.73;;;32.70;73.40;;;;;;5051314;28;20442;-80
2023/07/05 10:23:41;;;;;;;8.80;8.10;;;32.60;58.70;;;;;;5036095;28;20489;-80
2023/07/05 10:26:12;;;;;;;8.93;7.53;;;32.70;59.20;;;;;;5053161;28;20512;-81
2023/07/05 10:28:41;;;;;;;8.03;7.33;;;33.30;56.90;;;;;;5043525;28;20469;-79
2023/07/05 10:31:25;;;;;;;7.80;7.20;;;33.50;56.90;;;;;;5052780;28;20450;-81
2023/07/05 10:34:07;;;;;;;8.10;7.33;;;33.50;56.80;;;;;;5034357;28;20510;-82
2023/07/05 10:36:43;;;;;;;7.83;7.20;;;33.40;58.50;;;;;;5048078;28;20438;-80
2023/07/05 10:39:27;;;;;;;9.07;8.27;;;33.70;58.70;;;;;;5040073;28;20504;-84
2023/07/05 10:41:57;;;;;;;8.63;7.90;;;34.10;56.50;;;;;;5060150;28;20508;-82
2023/07/05 10:44:31;;;;;;;7.50;6.80;;;33.50;57.90;;;;;;5041692;28;20530;-79
2023/07/05 10:46:59;;;;;;;8.80;8.00;;;33.50;87.80;;;;;;5038165;28;20445;-79
2023/07/05 10:49:29;;;;;;;8.90;8.07;;;33.80;58.00;;;;;;5051073;28;20448;-81
2023/07/05 10:52:05;;;;;;;8.17;7.50;;;34.00;58.40;;;;;;5046110;28;20407;-82
2023/07/05 10:54:46;;;;;;;8.43;7.60;;;33.60;58.50;;;;;;5049065;28;20448;-80
2023/07/05 10:57:29;;;;;;;8.17;7.57;;;33.40;58.70;;;;;;5055274;28;20439;-78
2023/07/05 11:00:28;;;;;;;7.50;6.80;;;33.20;59.00;;;;;;5048663;28;20440;-80
2023/07/05 11:03:11;;;;;;;8.60;7.57;;;32.90;60.30;;;;;;5049270;28;20449;-80
2023/07/05 11:05:41;;;;;;;7.30;6.60;;;32.90;59.90;;;;;;5055381;28;20468;-81
2023/07/05 11:08:26;;;;;;;6.60;6.10;;;32.80;60.40;;;;;;5052748;28;20426;-81
2023/07/05 11:10:56;;;;;;;6.70;6.13;;;32.80;61.60;;;;;;5035699;28;20434;-81
2023/07/05 11:13:24;;;;;;;7.47;6.17;;;32.90;61.80;;;;;;5048451;28;20523;-79
2023/07/05 11:15:52;;;;;;;6.93;6.27;;;32.90;63.10;;;;;;5045074;28;20520;-79
2023/07/05 11:18:25;;;;;;;7.33;6.50;;;33.10;62.60;;;;;;5049508;28;20457;-83
2023/07/05 11:20:57;;;;;;;8.10;6.40;;;33.40;61.70;;;;;;5045799;28;20448;-82
2023/07/05 11:23:42;;;;;;;6.90;6.30;;;33.30;62.00;;;;;;5047066;28;20437;-83
2023/07/05 11:26:29;;;;;;;7.03;6.33;;;33.40;63.00;;;;;;5041463;28;21047;-80
2023/07/05 11:28:56;;;;;;;9.53;6.50;;;33.40;63.30;;;;;;5033192;28;20626;-80
2023/07/05 11:31:28;;;;;;;7.07;6.40;;;33.10;62.70;;;;;;5048921;28;20465;-80
2023/07/05 11:34:21;;;;;;;7.20;6.50;;;33.10;62.70;;;;;;5039195;28;20495;-81
2023/07/05 11:36:53;;;;;;;8.00;7.17;;;33.00;63.40;;;;;;5036443;28;20437;-80
2023/07/05 11:39:35;;;;;;;6.30;5.80;;;33.10;62.10;;;;;;5048893;28;20490;-82
2023/07/05 11:42:14;;;;;;;7.40;6.80;;;33.50;62.00;;;;;;5049555;28;20445;-80
2023/07/05 11:44:49;;;;;;;7.57;6.93;;;33.00;62.20;;;;;;5038467;28;20452;-83
2023/07/05 11:47:22;;;;;;;6.73;6.23;;;32.80;63.80;;;;;;5052209;28;20632;-79
2023/07/05 11:49:54;;;;;;;6.97;6.27;;;32.40;64.90;;;;;;5041416;28;20444;-82
2023/07/05 11:52:25;;;;;;;7.07;6.47;;;32.30;65.90;;;;;;5038361;28;20778;-80
2023/07/05 11:55:08;;;;;;;5.93;5.33;;;31.70;67.50;;;;;;5043571;28;20442;-82
2023/07/05 11:57:54;;;;;;;5.23;4.90;;;31.10;69.00;;;;;;5040780;28;20552;-82
2023/07/05 12:00:37;;;;;;;6.13;5.20;;;30.90;71.10;;;;;;5042016;28;20684;-80
2023/07/05 12:03:17;;;;;;;5.00;4.70;;;30.90;70.40;;;;;;5043295;28;20444;-81
2023/07/05 12:05:45;;;;;;;6.57;4.20;;;31.00;70.20;;;;;;5045481;28;20473;-82
2023/07/05 12:08:24;;;;;;;5.20;4.70;;;31.20;68.50;;;;;;5038513;28;20450;-83
2023/07/05 12:10:58;;;;;;;4.70;4.40;;;31.60;68.80;;;;;;5058320;28;20433;-81
2023/07/05 12:13:35;;;;;;;4.90;4.50;;;31.90;68.10;;;;;;5043113;28;20452;-81
2023/07/05 12:16:06;;;;;;;4.90;4.47;;;32.10;67.40;;;;;;5046412;28;20965;-80
2023/07/05 12:18:34;;;;;;;5.87;5.37;;;32.40;69.50;;;;;;5052981;28;20476;-79
2023/07/05 12:21:06;;;;;;;5.10;4.70;;;32.50;71.50;;;;;;5044631;28;20448;-82
2023/07/05 12:23:35;;;;;;;6.77;6.17;;;32.70;70.30;;;;;;5057377;28;20463;-83
2023/07/05 12:26:26;;;;;;;7.10;5.00;;;32.90;70.30;;;;;;5049943;28;20735;-84
2023/07/05 12:28:57;;;;;;;6.33;5.60;;;32.90;70.90;;;;;;5022132;28;20479;-83
2023/07/05 12:31:25;;;;;;;4.93;4.63;;;33.00;67.90;;;;;;5039370;28;20514;-82
2023/07/05 12:33:55;;;;;;;6.50;5.93;;;32.90;69.40;;;;;;5045046;28;20811;-83
2023/07/05 12:36:23;;;;;;;6.27;5.87;;;32.70;67.10;;;;;;5040128;28;20516;-80
2023/07/05 12:39:06;;;;;;;7.63;6.33;;;32.50;67.90;;;;;;5045160;28;20477;-82
2023/07/05 12:41:34;;;;;;;7.83;7.13;;;32.40;69.70;;;;;;5042361;28;20840;-81
2023/07/05 12:44:14;;;;;;;8.30;7.23;;;31.90;70.30;;;;;;5046442;28;20447;-80
2023/07/05 12:46:44;;;;;;;7.03;6.53;;;30.70;70.00;;;;;;5040127;28;20481;-84
2023/07/05 12:49:45;;;;;;;;;;;;;;;;;;;;;
2023/07/05 12:52:20;;;;;;;8.23;7.00;;;30.90;75.60;;;;;;5055940;28;20543;-81
2023/07/05 12:54:50;;;;;;;7.63;5.73;;;30.90;84.30;;;;;;5044735;28;20445;-81
2023/07/05 12:57:25;;;;;;;7.03;6.10;;;;;;;;;;5037823;28;20441;-83
2023/07/05 12:59:54;;;;;;;11.37;6.47;;;30.90;77.60;;;;;;5046182;28;20434;-83
2023/07/05 13:02:33;;;;;;;7.83;6.50;;;30.00;77.40;;;;;;5039434;28;20454;-81